Time;durP1;ratioP1;P1;durP2;ratioP2;P2;SDS_P1;SDS_P2;PMS_P1;PMS_P2;Temp;Humidity;BMP_temperature;BMP_pressure;BME280_temperature;BME280_humidity;BME280_pressure;Samples;Min_cycle;Max_cycle;Signal;HPM_P1;HPM_P2
2023/04/11 00:01:31;;;;;;;10.60;9.10;;;;;;;14.09;60.42;101006.93;106548;1272;22601;-50
2023/04/11 00:03:59;;;;;;;11.40;8.70;;;;;;;14.10;60.25;101005.16;106780;1272;25377;-49
2023/04/11 00:06:30;;;;;;;8.80;7.90;;;;;;;14.10;60.19;100996.95;106709;1266;25349;-49
2023/04/11 00:09:00;;;;;;;10.00;8.30;;;;;;;14.11;60.03;100998.14;106729;1276;25285;-49
2023/04/11 00:11:28;;;;;;;11.90;8.60;;;;;;;14.13;59.88;100994.23;106714;1271;25329;-51
2023/04/11 00:13:57;;;;;;;9.00;7.60;;;;;;;14.14;59.90;100989.67;106671;1272;25322;-50
2023/04/11 00:16:26;;;;;;;10.00;7.70;;;;;;;14.14;59.95;100980.06;106715;1272;24393;-50
2023/04/11 00:18:55;;;;;;;10.90;8.10;;;;;;;14.14;59.89;100974.84;106707;1272;25452;-49
2023/04/11 00:21:24;;;;;;;14.20;8.40;;;;;;;14.15;59.58;100974.80;106701;1272;25552;-49
2023/04/11 00:23:54;;;;;;;8.00;7.30;;;;;;;14.21;59.42;100972.17;106676;1271;25521;-49
2023/04/11 00:26:23;;;;;;;8.00;7.10;;;;;;;14.24;59.30;100971.02;106700;1276;22645;-50
2023/04/11 00:28:52;;;;;;;11.10;7.40;;;;;;;14.25;58.99;100964.52;106428;1273;25363;-50
2023/04/11 00:31:21;;;;;;;9.20;7.20;;;;;;;14.28;58.87;100960.77;106746;1272;22523;-50
2023/04/11 00:33:50;;;;;;;7.50;6.80;;;;;;;14.30;58.70;100958.45;106738;1271;25347;-50
2023/04/11 00:36:19;;;;;;;7.90;7.00;;;;;;;14.32;58.74;100960.98;106822;1271;25409;-50
2023/04/11 00:38:48;;;;;;;7.80;6.30;;;;;;;14.34;58.86;100966.67;106741;1275;25408;-50
2023/04/11 00:41:17;;;;;;;8.40;5.70;;;;;;;14.37;58.95;100958.05;106709;1272;25322;-49
2023/04/11 00:43:48;;;;;;;6.20;5.40;;;;;;;14.38;58.89;100952.09;106749;1272;25417;-50
2023/04/11 00:46:17;;;;;;;8.10;7.20;;;;;;;14.38;58.83;100940.90;106730;1272;25417;-49
2023/04/11 00:48:46;;;;;;;6.50;5.80;;;;;;;14.38;58.94;100933.77;106887;1271;25520;-49
2023/04/11 00:51:22;;;;;;;8.10;6.10;;;;;;;14.38;59.47;100928.52;107025;1269;25572;-49
2023/04/11 00:53:52;;;;;;;8.50;6.40;;;;;;;14.37;60.01;100929.94;107078;1267;25315;-49
2023/04/11 00:56:21;;;;;;;7.00;5.70;;;;;;;14.35;60.44;100917.63;107014;1268;25338;-48
2023/04/11 00:58:50;;;;;;;9.40;6.00;;;;;;;14.33;60.88;100915.24;106932;1269;22602;-50
2023/04/11 01:01:22;;;;;;;6.80;5.70;;;;;;;14.31;61.17;100915.14;107087;1268;25341;-50
2023/04/11 01:03:52;;;;;;;7.40;5.30;;;;;;;14.28;61.35;100914.53;106922;1269;24328;-50
2023/04/11 01:06:22;;;;;;;6.80;5.90;;;;;;;14.28;61.47;100905.81;106938;1271;23911;-50
2023/04/11 01:08:55;;;;;;;8.10;5.90;;;;;;;14.26;61.69;100899.95;106742;1269;25332;-49
2023/04/11 01:11:25;;;;;;;9.70;6.30;;;;;;;14.24;61.87;100900.52;106823;1269;25531;-49
2023/04/11 01:13:54;;;;;;;8.70;6.90;;;;;;;14.22;61.94;100897.45;106952;1261;25336;-50
2023/04/11 01:16:22;;;;;;;7.00;6.00;;;;;;;14.20;62.10;100885.13;106830;1269;25407;-50
2023/04/11 01:18:51;;;;;;;8.60;6.00;;;;;;;14.21;62.14;100887.37;106775;1273;25332;-50
2023/04/11 01:21:21;;;;;;;8.40;6.40;;;;;;;14.22;62.14;100889.60;106592;1275;25370;-49
2023/04/11 01:23:51;;;;;;;7.60;6.50;;;;;;;14.23;62.15;100886.77;106868;1272;25318;-49
2023/04/11 01:26:20;;;;;;;8.40;6.20;;;;;;;14.25;62.00;100889.69;107070;1269;22565;-49
2023/04/11 01:28:50;;;;;;;9.50;7.10;;;;;;;14.25;61.88;100886.70;106867;1269;25430;-49
2023/04/11 01:31:20;;;;;;;7.30;6.60;;;;;;;14.25;61.48;100883.05;107043;1268;22520;-50
2023/04/11 01:33:49;;;;;;;7.40;6.60;;;;;;;14.24;61.38;100874.19;107019;1253;22530;-50
2023/04/11 01:36:18;;;;;;;8.50;7.00;;;;;;;14.22;61.08;100867.41;106952;1268;22488;-50
2023/04/11 01:38:49;;;;;;;7.20;6.50;;;;;;;14.22;60.94;100868.34;106734;1269;22776;-51
2023/04/11 01:41:18;;;;;;;9.20;7.10;;;;;;;14.21;60.80;100864.70;107024;1272;22668;-50
2023/04/11 01:43:46;;;;;;;12.80;7.70;;;;;;;14.20;60.75;100867.16;107009;1268;24808;-50
2023/04/11 01:46:16;;;;;;;9.70;7.20;;;;;;;14.18;60.71;100863.41;107041;1269;25374;-50
2023/04/11 01:48:44;;;;;;;8.50;6.60;;;;;;;14.15;60.85;100859.67;106906;1274;25445;-50
2023/04/11 01:51:14;;;;;;;10.40;6.70;;;;;;;14.13;61.07;100854.16;106830;1272;25396;-49
2023/04/11 01:53:46;;;;;;;9.00;7.00;;;;;;;14.11;61.24;100848.64;106854;1271;22642;-49
2023/04/11 01:56:14;;;;;;;11.10;6.60;;;;;;;14.09;61.32;100840.17;107031;1272;25419;-49
2023/04/11 01:58:43;;;;;;;9.50;6.50;;;;;;;14.08;61.43;100837.59;107080;1269;25512;-50
2023/04/11 02:01:20;;;;;;;11.20;6.70;;;;;;;14.07;61.54;100838.15;106732;1269;25511;-49
2023/04/11 02:03:49;;;;;;;9.10;6.40;;;;;;;14.07;61.56;100839.72;106975;1268;22201;-49
2023/04/11 02:06:17;;;;;;;7.10;5.80;;;;;;;14.09;61.56;100836.31;106973;1271;22520;-48
2023/04/11 02:08:52;;;;;;;7.60;6.60;;;;;;;14.11;61.52;100825.96;106770;1269;22816;-49
2023/04/11 02:11:21;;;;;;;7.20;5.90;;;;;;;14.14;61.61;100826.91;106987;1273;25294;-48
2023/04/11 02:13:51;;;;;;;6.40;5.70;;;;;;;14.15;61.68;100821.29;107052;1269;25324;-49
2023/04/11 02:16:24;;;;;;;8.50;6.00;;;;;;;14.17;61.64;100822.79;107025;1271;25344;-50
2023/04/11 02:18:53;;;;;;;7.10;6.40;;;;;;;14.18;61.87;100816.27;107066;1268;25443;-50
2023/04/11 02:21:22;;;;;;;10.60;6.50;;;;;;;14.18;61.73;100812.64;106811;1268;22541;-49
2023/04/11 02:23:53;;;;;;;13.70;6.70;;;;;;;14.17;61.64;100807.95;107062;1269;25339;-49
2023/04/11 02:26:25;;;;;;;7.50;5.80;;;;;;;14.18;61.37;100804.09;107026;1269;25334;-49
2023/04/11 02:28:56;;;;;;;9.00;6.00;;;;;;;14.18;61.45;100797.43;106977;1268;25247;-49
2023/04/11 02:31:25;;;;;;;8.80;6.50;;;;;;;14.19;61.65;100788.88;107161;1268;22513;-49
2023/04/11 02:33:54;;;;;;;10.00;7.30;;;;;;;14.18;61.92;100784.00;106730;1275;25466;-50
2023/04/11 02:36:22;;;;;;;9.10;6.30;;;;;;;14.16;62.02;100783.55;107009;1269;26609;-50
2023/04/11 02:38:51;;;;;;;7.60;6.30;;;;;;;14.15;62.10;100785.01;106835;1269;25350;-49
2023/04/11 02:41:20;;;;;;;9.10;6.80;;;;;;;14.13;62.31;100779.33;107093;1269;25318;-49
2023/04/11 02:43:50;;;;;;;9.50;6.50;;;;;;;14.12;62.43;100768.17;106911;1271;25318;-50
2023/04/11 02:46:21;;;;;;;11.10;6.70;;;;;;;14.13;62.34;100763.79;106849;1274;22636;-50
2023/04/11 02:48:50;;;;;;;9.00;6.40;;;;;;;14.10;62.57;100758.65;107045;1269;22766;-50
2023/04/11 02:51:19;;;;;;;10.30;7.00;;;;;;;14.08;62.69;100758.05;106984;1270;25350;-50
2023/04/11 02:53:48;;;;;;;8.80;7.20;;;;;;;14.04;62.51;100753.83;106997;1271;22515;-50
2023/04/11 02:56:25;;;;;;;8.30;6.60;;;;;;;14.03;62.40;100751.25;107013;1269;25340;-50
2023/04/11 02:58:56;;;;;;;9.00;6.50;;;;;;;14.01;62.47;100746.77;106815;1274;22531;-50
2023/04/11 03:01:26;;;;;;;7.50;6.30;;;;;;;14.01;62.44;100744.55;106763;1274;22645;-50
2023/04/11 03:03:59;;;;;;;7.70;6.90;;;;;;;14.01;62.53;100746.45;107071;1268;25374;-50
2023/04/11 03:06:38;;;;;;;9.90;6.90;;;;;;;14.01;62.20;100738.26;106867;1269;25343;-50
2023/04/11 03:09:06;;;;;;;9.10;6.40;;;;;;;14.01;61.98;100735.97;106953;1269;22510;-49
2023/04/11 03:11:36;;;;;;;8.60;6.50;;;;;;;14.02;61.86;100731.04;107049;1269;25329;-51
2023/04/11 03:14:05;;;;;;;8.30;6.50;;;;;;;14.04;61.51;100723.30;107057;1269;25350;-49
2023/04/11 03:16:35;;;;;;;9.10;6.60;;;;;;;14.04;61.53;100734.29;107033;1269;25334;-48
2023/04/11 03:19:04;;;;;;;7.00;6.30;;;;;;;14.05;61.62;100728.68;106935;1271;25350;-49
2023/04/11 03:21:33;;;;;;;13.50;7.50;;;;;;;14.06;61.74;100729.35;106874;1269;22520;-49
2023/04/11 03:24:02;;;;;;;8.00;6.80;;;;;;;14.04;61.89;100731.32;106907;1270;25319;-49
2023/04/11 03:26:32;;;;;;;8.30;6.90;;;;;;;14.04;61.99;100733.79;106909;1275;25458;-49
2023/04/11 03:29:04;;;;;;;11.10;6.80;;;;;;;14.02;61.92;100730.53;106059;1270;1003485;-50
2023/04/11 03:31:39;;;;;;;9.10;6.50;;;;;;;14.02;61.81;100730.88;107028;1261;25347;-51
2023/04/11 03:34:08;;;;;;;8.60;7.00;;;;;;;14.02;61.41;100729.49;106755;1265;25357;-49
2023/04/11 03:36:42;;;;;;;7.20;6.50;;;;;;;14.02;61.59;100727.40;106807;1275;25472;-49
2023/04/11 03:39:10;;;;;;;9.30;6.90;;;;;;;14.02;61.61;100725.81;106688;1273;24208;-49
2023/04/11 03:41:39;;;;;;;9.30;6.60;;;;;;;13.97;61.62;100724.78;106740;1272;25321;-50
2023/04/11 03:44:17;;;;;;;8.70;6.70;;;;;;;13.96;61.64;100722.55;106826;1272;25312;-49
2023/04/11 03:46:46;;;;;;;8.40;6.50;;;;;;;13.96;61.65;100720.98;106701;1272;24298;-49
2023/04/11 03:49:16;;;;;;;10.40;7.70;;;;;;;13.95;61.53;100721.73;106825;1273;24265;-49
2023/04/11 03:51:45;;;;;;;11.10;7.20;;;;;;;13.92;61.48;100719.54;106699;1272;22526;-50
2023/04/11 03:54:14;;;;;;;13.60;8.20;;;;;;;13.91;61.62;100724.29;106709;1272;22557;-49
2023/04/11 03:56:43;;;;;;;7.30;6.60;;;;;;;13.89;61.74;100724.38;106784;1272;25496;-49
2023/04/11 03:59:18;;;;;;;10.40;7.80;;;;;;;13.85;61.66;100717.02;106760;1275;24266;-49
2023/04/11 04:01:53;;;;;;;10.30;7.50;;;;;;;13.81;61.62;100710.02;106793;1271;25331;-49
2023/04/11 04:04:22;;;;;;;9.30;7.20;;;;;;;13.76;61.83;100710.04;106811;1271;22525;-49
2023/04/11 04:07:00;;;;;;;12.20;7.70;;;;;;;13.71;62.44;100706.36;106865;1269;25354;-50
2023/04/11 04:09:35;;;;;;;11.90;8.10;;;;;;;13.65;63.10;100698.91;106818;1269;25261;-54
2023/04/11 04:12:04;;;;;;;12.30;8.10;;;;;;;13.56;63.64;100701.33;106750;1270;25350;-56
2023/04/11 04:14:51;;;;;;;13.90;8.40;;;;;;;13.47;64.22;100708.42;106920;1269;23235;-51
2023/04/11 04:17:20;;;;;;;11.80;7.80;;;;;;;13.41;64.53;100700.80;107051;1270;25350;-50
2023/04/11 04:19:50;;;;;;;12.70;8.30;;;;;;;13.32;65.01;100697.27;107081;1272;25211;-50
2023/04/11 04:22:25;;;;;;;9.30;8.20;;;;;;;13.27;65.42;100693.61;106836;1269;25346;-50
2023/04/11 04:24:56;;;;;;;14.10;9.30;;;;;;;13.23;65.83;100691.48;107003;1268;25419;-51
2023/04/11 04:27:31;;;;;;;11.50;8.30;;;;;;;13.19;66.24;100689.89;107060;1262;25315;-50
2023/04/11 04:30:00;;;;;;;11.50;8.90;;;;;;;13.17;66.58;100685.08;106951;1269;24763;-51
2023/04/11 04:32:53;;;;;;;11.30;8.30;;;;;;;13.15;66.77;100684.45;107033;1268;25346;-52
2023/04/11 04:35:26;;;;;;;12.20;9.20;;;;;;;13.13;66.98;100685.04;106693;1274;25507;-51
2023/04/11 04:37:56;;;;;;;12.80;8.70;;;;;;;13.12;67.16;100679.52;107049;1271;22739;-51
2023/04/11 04:40:40;;;;;;;10.50;8.40;;;;;;;13.12;67.22;100673.23;106855;1275;25364;-51
2023/04/11 04:43:17;;;;;;;14.60;9.00;;;;;;;13.11;67.44;100667.55;106862;1270;22526;-51
2023/04/11 04:45:50;;;;;;;13.60;9.30;;;;;;;13.09;67.50;100668.42;106930;1270;22531;-51
2023/04/11 04:48:26;;;;;;;13.50;9.30;;;;;;;13.08;67.59;100671.77;107002;1271;25350;-50
2023/04/11 04:50:55;;;;;;;12.80;9.20;;;;;;;13.07;67.72;100669.37;107008;1268;25406;-51
2023/04/11 04:53:26;;;;;;;12.60;8.80;;;;;;;13.07;67.88;100663.97;106899;1268;25545;-51
2023/04/11 04:55:57;;;;;;;12.70;9.10;;;;;;;13.05;67.99;100668.38;106954;1268;25328;-50
2023/04/11 04:58:27;;;;;;;13.30;8.60;;;;;;;13.05;68.13;100669.62;106813;1272;22720;-51
2023/04/11 05:01:01;;;;;;;11.20;8.40;;;;;;;13.05;68.37;100663.86;106838;1270;25405;-49
2023/04/11 05:03:33;;;;;;;12.10;9.00;;;;;;;13.04;68.41;100661.27;106639;1274;25467;-51
2023/04/11 05:06:05;;;;;;;11.20;8.00;;;;;;;13.02;68.61;100668.45;106733;1263;22547;-50
2023/04/11 05:08:44;;;;;;;10.80;9.50;;;;;;;13.00;68.86;100658.58;106860;1271;25332;-50
2023/04/11 05:11:14;;;;;;;13.50;8.70;;;;;;;12.99;68.93;100656.56;107078;1271;25350;-50
2023/04/11 05:13:43;;;;;;;11.20;8.50;;;;;;;12.98;69.13;100655.89;106946;1275;22662;-51
2023/04/11 05:16:13;;;;;;;14.30;9.20;;;;;;;12.96;69.06;100645.33;106513;1271;25475;-50
2023/04/11 05:18:43;;;;;;;20.60;9.50;;;;;;;12.95;69.23;100649.35;106966;1269;25362;-49
2023/04/11 05:21:12;;;;;;;11.10;7.40;;;;;;;12.96;69.26;100649.67;106816;1275;25335;-49
2023/04/11 05:23:42;;;;;;;11.90;8.40;;;;;;;12.96;69.28;100644.79;106667;1274;24193;-49
2023/04/11 05:26:11;;;;;;;9.20;8.10;;;;;;;12.97;69.33;100638.85;106531;1278;25423;-50
2023/04/11 05:28:40;;;;;;;11.60;8.60;;;;;;;12.98;69.25;100644.05;106795;1271;25312;-50
2023/04/11 05:31:11;;;;;;;10.80;8.40;;;;;;;12.99;69.37;100642.61;106766;1270;25346;-50
2023/04/11 05:33:42;;;;;;;14.10;7.90;;;;;;;13.01;69.34;100634.17;106832;1270;23898;-50
2023/04/11 05:36:12;;;;;;;12.70;8.40;;;;;;;13.02;69.33;100631.17;106693;1270;22674;-50
2023/04/11 05:38:42;;;;;;;14.80;8.80;;;;;;;13.03;69.41;100631.15;106793;1272;22528;-50
2023/04/11 05:41:11;;;;;;;11.20;8.80;;;;;;;13.05;69.45;100632.52;107338;1272;25510;-50
2023/04/11 05:44:00;;;;;;;12.60;8.00;;;;;;;13.05;69.47;100632.14;107033;1270;25522;-49
2023/04/11 05:46:31;;;;;;;12.60;9.10;;;;;;;13.05;69.58;100631.13;106405;1276;22532;-50
2023/04/11 05:49:00;;;;;;;13.70;8.20;;;;;;;13.04;69.64;100619.48;106772;1276;25794;-50
2023/04/11 05:51:29;;;;;;;13.00;8.50;;;;;;;13.01;69.74;100616.92;106686;1274;22609;-50
2023/04/11 05:53:59;;;;;;;14.70;9.20;;;;;;;13.00;69.80;100604.27;106379;1281;25368;-49
2023/04/11 05:56:27;;;;;;;14.10;9.70;;;;;;;12.99;69.93;100594.40;106889;1272;25327;-50
2023/04/11 05:58:58;;;;;;;14.20;8.70;;;;;;;12.97;70.02;100582.80;107056;1269;26499;-49
2023/04/11 06:01:29;;;;;;;12.80;9.20;;;;;;;12.96;70.13;100581.94;106695;1279;25302;-49
2023/04/11 06:03:57;;;;;;;12.70;8.70;;;;;;;12.94;70.32;100580.27;106704;1258;24543;-49
2023/04/11 06:06:28;;;;;;;12.60;8.40;;;;;;;12.94;70.41;100569.82;106877;1268;22666;-50
2023/04/11 06:08:57;;;;;;;12.50;8.00;;;;;;;12.94;70.50;100567.91;106499;1272;22806;-50
2023/04/11 06:11:26;;;;;;;13.20;8.10;;;;;;;12.95;70.66;100567.54;106792;1271;22568;-50
2023/04/11 06:13:56;;;;;;;14.00;9.10;;;;;;;12.95;70.78;100563.17;106799;1272;22524;-50
2023/04/11 06:16:25;;;;;;;12.80;8.20;;;;;;;12.95;70.76;100558.81;106798;1272;23257;-50
2023/04/11 06:18:54;;;;;;;13.80;8.20;;;;;;;12.95;70.69;100559.51;106962;1273;25455;-50
2023/04/11 06:21:22;;;;;;;12.20;8.70;;;;;;;12.95;70.81;100562.14;107081;1270;25354;-50
2023/04/11 06:23:50;;;;;;;15.40;8.60;;;;;;;12.94;70.92;100552.94;107222;1272;25223;-50
2023/04/11 06:26:19;;;;;;;16.80;8.70;;;;;;;12.94;71.02;100539.70;107329;1269;25606;-49
2023/04/11 06:28:50;;;;;;;13.40;8.40;;;;;;;12.92;71.19;100540.84;107172;1268;25322;-49
2023/04/11 06:31:18;;;;;;;11.80;8.50;;;;;;;12.93;71.29;100537.13;107023;1270;23004;-50
2023/04/11 06:33:47;;;;;;;13.10;8.70;;;;;;;12.94;71.35;100534.14;107051;1275;25389;-50
2023/04/11 06:36:16;;;;;;;17.00;9.40;;;;;;;12.94;71.53;100539.86;107148;1271;24251;-50
2023/04/11 06:38:45;;;;;;;14.70;8.60;;;;;;;12.95;71.55;100538.80;107026;1275;22564;-50
2023/04/11 06:41:14;;;;;;;10.40;8.80;;;;;;;12.97;71.64;100536.65;107076;1275;25370;-51
2023/04/11 06:43:43;;;;;;;11.80;8.40;;;;;;;12.98;71.61;100527.73;107133;1264;22569;-51
2023/04/11 06:46:12;;;;;;;11.10;8.30;;;;;;;12.99;71.63;100522.82;105461;1271;1015586;-51
2023/04/11 06:48:41;;;;;;;14.80;8.40;;;;;;;13.01;71.76;100514.36;106889;1260;22528;-48
2023/04/11 06:51:09;;;;;;;12.30;7.90;;;;;;;13.04;71.87;100515.52;106843;1275;24279;-50
2023/04/11 06:53:41;;;;;;;;;;;;;;;13.06;71.78;100512.83;107013;1271;25303;-50
2023/04/11 06:56:10;;;;;;;11.40;7.20;;;;;;;13.07;71.81;100514.20;106881;1275;25413;-50
2023/04/11 06:58:38;;;;;;;11.80;7.70;;;;;;;13.10;71.87;100508.20;106648;1267;25325;-51
2023/04/11 07:01:07;;;;;;;13.60;7.70;;;;;;;13.12;71.96;100512.82;107021;1270;23262;-50
2023/04/11 07:03:37;;;;;;;14.90;8.20;;;;;;;13.15;71.90;100509.76;106804;1275;25363;-50
2023/04/11 07:06:07;;;;;;;10.90;7.80;;;;;;;13.18;71.89;100505.48;106891;1272;22529;-50
2023/04/11 07:08:37;;;;;;;13.20;7.80;;;;;;;13.20;71.85;100505.39;106588;1275;24201;-51
2023/04/11 07:11:06;;;;;;;13.80;7.80;;;;;;;13.23;71.93;100508.23;106880;1272;22535;-50
2023/04/11 07:13:41;;;;;;;11.60;7.20;;;;;;;13.23;71.77;100514.48;106856;1269;27047;-51
2023/04/11 07:16:11;;;;;;;11.90;7.20;;;;;;;13.24;71.90;100508.20;106944;1270;25598;-51
2023/04/11 07:18:43;;;;;;;11.10;7.10;;;;;;;13.27;71.87;100514.54;107041;1266;22354;-50
2023/04/11 07:21:13;;;;;;;10.90;6.90;;;;;;;13.28;71.83;100508.39;106938;1269;24259;-51
2023/04/11 07:23:41;;;;;;;11.70;7.20;;;;;;;13.30;71.80;100503.45;107115;1268;25444;-51
2023/04/11 07:26:11;;;;;;;18.20;8.00;;;;;;;13.30;71.71;100503.96;107175;1272;22527;-52
2023/04/11 07:28:43;;;;;;;;;;;;;;;13.28;71.68;100515.02;107075;1270;25378;-51
2023/04/11 07:31:12;;;;;;;12.40;7.10;;;;;;;13.30;71.66;100516.85;107087;1270;22525;-52
2023/04/11 07:33:42;;;;;;;10.90;7.10;;;;;;;13.30;71.74;100512.69;106945;1274;23889;-55
2023/04/11 07:36:10;;;;;;;14.90;7.00;;;;;;;13.29;71.75;100514.11;106982;1269;22998;-53
2023/04/11 07:38:40;;;;;;;13.60;7.50;;;;;;;13.27;71.75;100511.04;107110;1269;22617;-54
2023/04/11 07:41:08;;;;;;;11.30;7.20;;;;;;;13.25;71.83;100509.03;106954;1269;22751;-55
2023/04/11 07:43:39;;;;;;;10.20;7.10;;;;;;;13.24;71.90;100501.78;107064;1268;25349;-54
2023/04/11 07:46:08;;;;;;;15.50;7.10;;;;;;;13.22;71.99;100491.05;107012;1269;22527;-54
2023/04/11 07:48:38;;;;;;;10.80;7.10;;;;;;;13.20;72.08;100476.30;106859;1270;25335;-53
2023/04/11 07:51:07;;;;;;;12.80;6.60;;;;;;;13.19;72.17;100482.45;107033;1272;23887;-53
2023/04/11 07:53:37;;;;;;;10.80;6.20;;;;;;;13.17;72.27;100485.29;107134;1270;25369;-54
2023/04/11 07:56:07;;;;;;;12.20;7.30;;;;;;;13.16;72.30;100481.84;107087;1270;25332;-55
2023/04/11 07:58:35;;;;;;;10.40;6.00;;;;;;;13.16;72.35;100479.08;107069;1270;25332;-56
2023/04/11 08:01:05;;;;;;;10.20;6.30;;;;;;;13.13;72.43;100464.88;106547;1269;1003628;-54
2023/04/11 08:03:35;;;;;;;11.20;6.10;;;;;;;13.12;72.55;100477.66;106931;1274;25410;-54
2023/04/11 08:06:05;;;;;;;11.50;6.40;;;;;;;13.09;72.69;100480.36;107189;1267;25525;-54
2023/04/11 08:08:36;;;;;;;10.60;6.60;;;;;;;13.09;72.53;100478.42;107161;1261;25532;-54
2023/04/11 08:11:06;;;;;;;11.30;6.90;;;;;;;13.08;72.66;100481.10;107212;1257;23250;-55
2023/04/11 08:13:34;;;;;;;10.80;6.20;;;;;;;13.06;72.72;100479.93;107067;1261;24452;-56
2023/04/11 08:16:08;;;;;;;11.70;6.70;;;;;;;13.04;72.71;100477.02;106762;1275;24369;-55
2023/04/11 08:18:40;;;;;;;13.80;7.10;;;;;;;13.02;72.74;100477.08;107302;1260;22530;-54
2023/04/11 08:21:10;;;;;;;10.90;6.40;;;;;;;13.01;72.81;100482.69;107365;1257;25405;-54
2023/04/11 08:23:40;;;;;;;14.90;6.70;;;;;;;13.00;72.85;100480.45;107069;1269;25339;-55
2023/04/11 08:26:11;;;;;;;12.40;6.40;;;;;;;12.99;72.90;100483.98;107356;1269;25375;-54
2023/04/11 08:28:40;;;;;;;14.80;6.20;;;;;;;12.98;72.92;100486.27;106763;1270;25317;-54
2023/04/11 08:31:11;;;;;;;12.40;6.40;;;;;;;12.98;73.05;100482.80;106861;1259;27020;-54
2023/04/11 08:33:40;;;;;;;11.70;5.90;;;;;;;12.97;72.97;100482.31;106757;1277;22540;-52
2023/04/11 08:36:11;;;;;;;14.30;6.30;;;;;;;12.96;72.98;100488.64;106887;1264;25469;-51
2023/04/11 08:38:40;;;;;;;14.80;6.50;;;;;;;12.94;73.12;100485.91;106810;1264;24217;-53
2023/04/11 08:41:09;;;;;;;14.80;6.00;;;;;;;12.94;73.13;100479.30;106694;1270;25425;-52
2023/04/11 08:43:43;;;;;;;11.10;6.40;;;;;;;12.93;73.21;100475.32;106754;1257;24891;-52
2023/04/11 08:46:11;;;;;;;17.60;7.50;;;;;;;12.92;73.28;100470.66;107270;1254;23874;-51
2023/04/11 08:48:40;;;;;;;16.20;7.30;;;;;;;12.91;73.40;100472.44;106874;1270;25507;-51
2023/04/11 08:51:11;;;;;;;15.50;7.10;;;;;;;12.92;73.60;100473.09;107049;1263;25380;-52
2023/04/11 08:53:42;;;;;;;14.40;6.80;;;;;;;12.91;73.57;100473.83;106696;1272;25485;-51
2023/04/11 08:56:17;;;;;;;13.90;6.80;;;;;;;12.90;73.65;100478.41;106594;1273;25340;-51
2023/04/11 08:58:50;;;;;;;15.80;7.20;;;;;;;12.89;73.70;100470.78;106673;1277;25392;-52
2023/04/11 09:01:39;;;;;;;19.70;7.60;;;;;;;12.87;73.72;100470.48;106978;1273;25346;-53
2023/04/11 09:04:09;;;;;;;13.70;6.90;;;;;;;12.86;73.81;100467.05;107309;1257;24067;-52
2023/04/11 09:06:38;;;;;;;13.70;7.30;;;;;;;12.84;73.78;100466.75;106884;1269;25337;-53
2023/04/11 09:09:08;;;;;;;14.80;7.40;;;;;;;12.84;73.78;100469.55;105410;1269;1003683;-54
2023/04/11 09:11:57;;;;;;;12.10;6.50;;;;;;;12.84;73.78;100467.81;107251;1268;22532;-55
2023/04/11 09:14:28;;;;;;;11.80;6.40;;;;;;;12.85;73.88;100465.35;106986;1269;25500;-53
2023/04/11 09:17:03;;;;;;;12.80;6.30;;;;;;;12.85;73.81;100464.30;107222;1268;23360;-54
2023/04/11 09:19:33;;;;;;;12.90;6.40;;;;;;;12.86;73.86;100458.17;107315;1260;22517;-54
2023/04/11 09:22:05;;;;;;;14.30;6.20;;;;;;;12.88;73.89;100450.09;106710;1275;22523;-54
2023/04/11 09:24:34;;;;;;;13.70;6.90;;;;;;;12.88;73.79;100445.58;106954;1270;25348;-54
2023/04/11 09:27:09;;;;;;;20.50;6.90;;;;;;;12.87;73.68;100451.35;107276;1260;22537;-53
2023/04/11 09:29:46;;;;;;;11.00;7.30;;;;;;;12.86;73.67;100457.48;107155;1269;25364;-53
2023/04/11 09:32:28;;;;;;;13.60;7.10;;;;;;;12.86;73.70;100454.33;106886;1269;23173;-54
2023/04/11 09:35:09;;;;;;;13.40;6.90;;;;;;;12.88;73.50;100448.38;107267;1261;22595;-53
2023/04/11 09:37:45;;;;;;;14.80;6.20;;;;;;;12.89;73.40;100447.60;107199;1268;25332;-55
2023/04/11 09:40:15;;;;;;;12.80;6.00;;;;;;;12.91;73.23;100448.05;106833;1270;25342;-53
2023/04/11 09:42:45;;;;;;;15.90;6.30;;;;;;;12.92;73.10;100445.42;106857;1271;22535;-54
2023/04/11 09:45:17;;;;;;;9.90;5.60;;;;;;;12.91;73.05;100440.58;106728;1269;22542;-53
2023/04/11 09:47:46;;;;;;;12.70;5.90;;;;;;;12.91;73.02;100441.64;106734;1269;25350;-54
2023/04/11 09:50:15;;;;;;;14.00;6.60;;;;;;;12.89;72.94;100433.01;106951;1269;24212;-53
2023/04/11 09:52:44;;;;;;;15.40;7.70;;;;;;;12.88;72.97;100430.07;106741;1269;22526;-54
2023/04/11 09:55:15;;;;;;;14.30;7.30;;;;;;;12.89;73.05;100438.91;106969;1268;22777;-54
2023/04/11 09:57:46;;;;;;;10.60;6.80;;;;;;;12.87;73.09;100440.90;106754;1275;24208;-54
2023/04/11 10:00:18;;;;;;;12.20;6.40;;;;;;;12.86;73.11;100434.13;107155;1253;22528;-52
2023/04/11 10:02:48;;;;;;;15.10;6.50;;;;;;;12.87;73.07;100438.81;106834;1275;22524;-53
2023/04/11 10:08:44;;;;;;;10.30;6.30;;;;;;;12.92;72.97;100434.64;103874;1298;544927;-54
2023/04/11 10:11:17;;;;;;;15.10;5.90;;;;;;;12.90;73.02;100431.89;105972;1285;25425;-53
2023/04/11 10:13:48;;;;;;;15.80;6.10;;;;;;;12.91;72.93;100430.65;106252;1272;25380;-53
2023/04/11 10:16:17;;;;;;;10.20;5.70;;;;;;;12.90;72.95;100432.59;106116;1273;22935;-53
2023/04/11 10:18:52;;;;;;;14.40;6.80;;;;;;;12.90;72.95;100437.66;106097;1277;25376;-54
2023/04/11 10:21:31;;;;;;;15.00;7.20;;;;;;;12.89;72.97;100435.79;105938;1280;220506;-53
2023/04/11 10:24:13;;;;;;;13.20;6.90;;;;;;;12.92;72.89;100438.11;106410;1279;24281;-54
2023/04/11 10:26:59;;;;;;;10.50;5.60;;;;;;;12.92;72.74;100437.59;106539;1270;25356;-53
2023/04/11 10:29:39;;;;;;;14.20;5.50;;;;;;;12.94;72.70;100435.77;106525;1270;25564;-52
2023/04/11 10:32:12;;;;;;;13.00;6.30;;;;;;;12.95;72.64;100434.49;106448;1271;25335;-52
2023/04/11 10:34:53;;;;;;;11.20;5.60;;;;;;;12.97;72.73;100436.52;106368;1263;22530;-53
2023/04/11 10:37:34;;;;;;;10.00;5.10;;;;;;;12.98;72.81;100438.57;106465;1270;25349;-53
2023/04/11 10:40:10;;;;;;;16.00;6.30;;;;;;;13.00;72.88;100433.29;106388;1282;25370;-52
2023/04/11 10:42:43;;;;;;;12.60;6.30;;;;;;;13.04;72.79;100435.08;106296;1284;25386;-52
2023/04/11 10:45:28;;;;;;;13.60;5.90;;;;;;;13.05;72.64;100436.78;106372;1279;22532;-52
2023/04/11 10:48:04;;;;;;;13.00;7.00;;;;;;;13.07;72.61;100430.80;106287;1279;25370;-52
2023/04/11 10:50:36;;;;;;;8.70;6.00;;;;;;;13.09;72.60;100432.30;105939;1284;25359;-51
2023/04/11 10:53:06;;;;;;;11.20;5.80;;;;;;;13.14;72.46;100430.04;106675;1273;22648;-54
2023/04/11 10:55:45;;;;;;;13.50;5.80;;;;;;;13.17;72.32;100429.73;106737;1272;24368;-53
2023/04/11 10:58:15;;;;;;;12.10;5.20;;;;;;;13.18;72.28;100429.36;106610;1273;24361;-53
2023/04/11 11:00:47;;;;;;;11.40;5.00;;;;;;;13.19;72.24;100426.35;106595;1277;24333;-52
2023/04/11 11:03:20;;;;;;;10.50;4.60;;;;;;;13.19;72.19;100424.81;106691;1272;25328;-52
2023/04/11 11:06:00;;;;;;;15.50;6.30;;;;;;;13.20;72.10;100427.20;106577;1276;25347;-52
2023/04/11 11:08:30;;;;;;;8.20;5.70;;;;;;;13.20;72.12;100423.89;106454;1272;25538;-52
2023/04/11 11:11:00;;;;;;;14.60;5.30;;;;;;;13.20;72.06;100425.61;106570;1272;25354;-53
2023/04/11 11:13:40;;;;;;;10.10;5.30;;;;;;;13.18;72.00;100418.88;106402;1273;22696;-51
2023/04/11 11:16:09;;;;;;;11.50;5.50;;;;;;;13.16;72.06;100422.09;106464;1272;22527;-52
2023/04/11 11:18:49;;;;;;;10.70;5.60;;;;;;;13.18;72.16;100426.58;104398;1273;1005349;-53
2023/04/11 11:21:20;;;;;;;11.50;5.10;;;;;;;13.21;72.22;100426.27;106659;1273;22635;-53
2023/04/11 11:23:56;;;;;;;10.40;5.00;;;;;;;13.26;72.15;100424.16;106611;1273;25335;-53
2023/04/11 11:26:38;;;;;;;11.40;5.40;;;;;;;13.28;71.96;100421.64;106631;1279;25360;-52
2023/04/11 11:29:07;;;;;;;11.80;5.10;;;;;;;13.30;72.03;100422.98;106689;1276;22527;-52
2023/04/11 11:31:44;;;;;;;12.10;5.70;;;;;;;13.29;71.95;100422.98;106452;1273;25341;-52
2023/04/11 11:34:13;;;;;;;12.20;5.20;;;;;;;13.29;71.97;100423.19;106752;1272;25237;-53